createdAt,value
2023-11-12T00:00:13.705Z,8.80
2023-11-12T00:01:15.795Z,10.43
2023-11-12T00:02:17.736Z,9.32
2023-11-12T00:03:20.496Z,8.57
2023-11-12T00:04:22.527Z,9.45
2023-11-12T00:05:24.526Z,12.52
2023-11-12T00:06:26.416Z,10.63
2023-11-12T00:07:28.277Z,8.90
2023-11-12T00:08:31.359Z,10.82
2023-11-12T00:09:33.254Z,10.27
2023-11-12T00:10:35.557Z,12.55
2023-11-12T00:11:39.389Z,10.23
2023-11-12T00:12:42.131Z,10.93
2023-11-12T00:13:44.308Z,9.57
2023-11-12T00:14:46.960Z,8.52
2023-11-12T00:15:49.150Z,11.63
2023-11-12T00:16:51.137Z,11.85
2023-11-12T00:17:53.109Z,9.48
2023-11-12T00:18:56.327Z,10.77
2023-11-12T00:19:58.338Z,10.55
2023-11-12T00:21:00.324Z,9.65
2023-11-12T00:22:03.150Z,8.85
2023-11-12T00:23:05.098Z,9.52
2023-11-12T00:24:08.756Z,10.80
2023-11-12T00:25:13.661Z,11.85
2023-11-12T00:26:16.094Z,8.48
2023-11-12T00:27:25.568Z,11.25
2023-11-12T00:28:28.345Z,15.27
2023-11-12T00:29:30.242Z,10.88
2023-11-12T00:30:32.190Z,11.02
2023-11-12T00:31:34.571Z,12.95
2023-11-12T00:32:37.231Z,9.05
2023-11-12T00:33:41.819Z,8.85
2023-11-12T00:34:44.365Z,10.30
2023-11-12T00:35:46.242Z,10.23
2023-11-12T00:36:48.104Z,10.27
2023-11-12T00:37:50.062Z,11.07
2023-11-12T00:38:52.343Z,10.48
2023-11-12T00:39:54.246Z,11.02
2023-11-12T00:40:56.347Z,11.80
2023-11-12T00:42:00.253Z,15.48
2023-11-12T00:43:03.295Z,11.60
2023-11-12T00:44:06.365Z,10.52
2023-11-12T00:45:09.717Z,12.60
2023-11-12T00:46:11.784Z,9.25
2023-11-12T00:47:13.744Z,16.02
2023-11-12T00:48:17.964Z,11.45
2023-11-12T00:49:20.065Z,11.50
2023-11-12T00:50:21.980Z,12.30
2023-11-12T00:51:23.882Z,10.60
2023-11-12T00:52:26.252Z,9.35
2023-11-12T00:53:28.692Z,11.77
2023-11-12T00:54:31.370Z,12.43
2023-11-12T00:55:33.460Z,9.90
2023-11-12T00:56:35.328Z,12.95
2023-11-12T00:57:37.425Z,14.43
2023-11-12T00:58:39.435Z,13.30
2023-11-12T00:59:43.359Z,12.80
2023-11-12T01:00:45.254Z,13.13
2023-11-12T01:01:47.252Z,11.98
2023-11-12T01:02:50.092Z,14.13
2023-11-12T01:03:52.263Z,10.05
2023-11-12T01:04:54.292Z,10.55
2023-11-12T01:05:56.126Z,11.32
2023-11-12T01:06:58.064Z,10.15
2023-11-12T01:08:00.047Z,10.73
2023-11-12T01:09:02.008Z,10.52
2023-11-12T01:10:05.951Z,10.85
2023-11-12T01:11:09.371Z,10.57
2023-11-12T01:12:11.350Z,11.45
2023-11-12T01:13:13.315Z,9.65
2023-11-12T01:14:15.373Z,13.05
2023-11-12T01:15:18.910Z,11.27
2023-11-12T01:16:21.173Z,14.43
2023-11-12T01:17:23.195Z,10.88
2023-11-12T01:18:25.776Z,9.43
2023-11-12T01:19:27.796Z,8.90
2023-11-12T01:20:29.757Z,11.48
2023-11-12T01:21:31.832Z,9.70
2023-11-12T01:22:33.813Z,8.40
2023-11-12T01:23:37.918Z,9.90
2023-11-12T01:24:40.728Z,8.80
2023-11-12T01:25:42.955Z,8.75
2023-11-12T01:26:44.968Z,8.88
2023-11-12T01:27:46.862Z,7.78
2023-11-12T01:28:48.831Z,9.38
2023-11-12T01:29:50.824Z,8.27
2023-11-12T01:30:52.678Z,9.18
2023-11-12T01:31:55.803Z,6.35
2023-11-12T01:32:57.825Z,7.70
2023-11-12T01:33:59.831Z,8.70
2023-11-12T01:35:04.178Z,9.90
2023-11-12T01:36:07.522Z,12.57
2023-11-12T01:37:09.399Z,8.02
2023-11-12T01:38:11.525Z,6.38
2023-11-12T01:39:13.759Z,7.10
2023-11-12T01:40:17.241Z,7.40
2023-11-12T01:41:19.304Z,6.72
2023-11-12T01:42:21.300Z,6.45
2023-11-12T01:43:23.209Z,8.77
2023-11-12T01:44:25.105Z,8.15
2023-11-12T01:45:27.018Z,8.73
2023-11-12T01:46:29.761Z,8.55
2023-11-12T01:47:32.149Z,7.13
2023-11-12T01:48:36.881Z,7.82
2023-11-12T01:49:40.440Z,10.00
2023-11-12T01:50:43.961Z,7.63
2023-11-12T01:51:46.339Z,8.40
2023-11-12T01:52:50.504Z,7.10
2023-11-12T01:53:54.204Z,7.43
2023-11-12T01:54:57.379Z,9.10
2023-11-12T01:56:00.285Z,6.10
2023-11-12T01:57:02.869Z,7.38
2023-11-12T01:58:05.556Z,5.20
2023-11-12T01:59:07.808Z,6.75
2023-11-12T02:00:17.473Z,6.35
2023-11-12T02:01:20.732Z,6.85
2023-11-12T02:02:22.660Z,8.15
2023-11-12T02:03:27.913Z,6.45
2023-11-12T02:04:30.220Z,6.70
2023-11-12T02:05:32.579Z,7.63
2023-11-12T02:06:34.544Z,6.30
2023-11-12T02:07:38.349Z,6.00
2023-11-12T02:08:43.543Z,7.05
2023-11-12T02:09:45.467Z,5.68
2023-11-12T02:10:49.824Z,6.43
2023-11-12T02:11:53.193Z,5.95
2023-11-12T02:12:55.275Z,6.32
2023-11-12T02:13:57.588Z,7.82
2023-11-12T02:14:59.629Z,7.60
2023-11-12T02:16:01.923Z,7.03
2023-11-12T02:17:03.903Z,6.95
2023-11-12T02:18:05.908Z,6.30
2023-11-12T02:19:31.860Z,6.85
2023-11-12T02:20:34.130Z,6.57
2023-11-12T02:21:36.065Z,5.65
2023-11-12T02:22:39.260Z,6.60
2023-11-12T02:23:41.221Z,5.97
2023-11-12T02:24:43.963Z,5.93
2023-11-12T02:25:46.513Z,6.15
2023-11-12T02:26:49.009Z,7.13
2023-11-12T02:27:51.052Z,7.15
2023-11-12T02:28:53.014Z,6.00
2023-11-12T02:29:55.287Z,5.57
2023-11-12T02:30:57.306Z,7.10
2023-11-12T02:32:00.321Z,6.05
2023-11-12T02:33:02.349Z,6.82
2023-11-12T02:34:04.791Z,7.85
2023-11-12T02:35:08.921Z,6.88
2023-11-12T02:36:11.184Z,9.38
2023-11-12T02:37:14.792Z,7.00
2023-11-12T02:38:17.714Z,7.47
2023-11-12T02:39:22.243Z,7.93
2023-11-12T02:40:24.501Z,9.75
2023-11-12T02:41:26.445Z,9.00
2023-11-12T02:42:30.390Z,8.95
2023-11-12T02:43:35.168Z,7.13
2023-11-12T02:44:40.027Z,7.93
2023-11-12T02:45:41.907Z,7.80
2023-11-12T02:46:43.920Z,7.70
2023-11-12T02:47:45.980Z,10.40
2023-11-12T02:49:23.467Z,8.02
2023-11-12T02:50:33.199Z,7.10
2023-11-12T02:51:36.687Z,7.15
2023-11-12T02:52:38.636Z,7.25
2023-11-12T02:53:40.560Z,9.25
2023-11-12T02:54:42.488Z,10.30
2023-11-12T02:55:45.606Z,7.90
2023-11-12T02:56:47.507Z,8.90
2023-11-12T02:57:50.297Z,7.47
2023-11-12T02:58:52.593Z,7.40
2023-11-12T02:59:55.823Z,7.32
2023-11-12T03:00:57.974Z,6.70
2023-11-12T03:02:00.043Z,7.20
2023-11-12T03:03:03.827Z,9.20
2023-11-12T03:04:07.807Z,6.38
2023-11-12T03:05:09.990Z,10.73
2023-11-12T03:06:12.686Z,6.05
2023-11-12T03:07:15.763Z,8.63
2023-11-12T03:08:17.731Z,6.72
2023-11-12T03:09:21.072Z,7.28
2023-11-12T03:10:24.065Z,7.45
2023-11-12T03:11:27.203Z,7.85
2023-11-12T03:12:29.478Z,5.97
2023-11-12T03:13:31.443Z,7.40
2023-11-12T03:14:34.583Z,7.68
2023-11-12T03:15:36.484Z,6.70
2023-11-12T03:16:38.715Z,7.03
2023-11-12T03:17:41.441Z,8.40
2023-11-12T03:18:50.920Z,6.45
2023-11-12T03:19:56.103Z,6.22
2023-11-12T03:20:58.029Z,6.95
2023-11-12T03:21:59.919Z,6.47
2023-11-12T03:23:02.096Z,10.93
2023-11-12T03:24:06.264Z,6.97
2023-11-12T03:25:11.064Z,6.97
2023-11-12T03:26:13.298Z,7.25
2023-11-12T03:27:15.770Z,7.07
2023-11-12T03:28:17.910Z,6.80
2023-11-12T03:29:20.435Z,8.20
2023-11-12T03:30:22.358Z,6.88
2023-11-12T03:31:26.972Z,6.55
2023-11-12T03:32:29.002Z,8.38
2023-11-12T03:33:32.690Z,8.90
2023-11-12T03:34:34.857Z,7.72
2023-11-12T03:35:38.367Z,7.47
2023-11-12T03:36:40.287Z,7.68
2023-11-12T03:37:42.202Z,7.93
2023-11-12T03:38:44.441Z,7.30
2023-11-12T03:39:51.173Z,8.15
2023-11-12T03:40:53.257Z,9.45
2023-11-12T03:41:55.352Z,6.68
2023-11-12T03:42:57.295Z,7.18
2023-11-12T03:43:59.393Z,7.03
2023-11-12T03:45:01.528Z,8.50
2023-11-12T03:46:03.575Z,7.70
2023-11-12T03:47:06.093Z,6.60
2023-11-12T03:48:11.327Z,7.10
2023-11-12T03:49:13.297Z,6.57
2023-11-12T03:50:15.361Z,7.20
2023-11-12T03:51:17.347Z,7.22
2023-11-12T03:52:19.914Z,5.97
2023-11-12T03:53:21.757Z,10.80
2023-11-12T03:54:24.413Z,9.43
2023-11-12T03:55:27.007Z,6.78
2023-11-12T03:56:30.921Z,6.00
2023-11-12T03:57:33.120Z,7.15
2023-11-12T03:58:35.022Z,6.25
2023-11-12T03:59:37.479Z,6.53
2023-11-12T04:00:39.615Z,8.95
2023-11-12T04:01:41.725Z,5.57
2023-11-12T04:02:43.968Z,7.80
2023-11-12T04:03:46.426Z,6.70
2023-11-12T04:04:48.659Z,6.80
2023-11-12T04:05:50.646Z,7.07
2023-11-12T04:06:52.575Z,7.50
2023-11-12T04:07:54.657Z,6.20
2023-11-12T04:08:56.578Z,7.45
2023-11-12T04:09:59.081Z,6.65
2023-11-12T04:11:01.179Z,7.00
2023-11-12T04:12:05.341Z,6.82
2023-11-12T04:13:08.458Z,6.50
2023-11-12T04:14:10.490Z,8.75
2023-11-12T04:15:13.079Z,8.30
2023-11-12T04:16:15.220Z,7.43
2023-11-12T04:17:19.051Z,8.43
2023-11-12T04:18:20.979Z,7.10
2023-11-12T04:19:22.846Z,6.15
2023-11-12T04:20:30.360Z,6.22
2023-11-12T04:21:32.538Z,6.70
2023-11-12T04:22:35.325Z,6.97
2023-11-12T04:23:37.395Z,7.47
2023-11-12T04:24:39.365Z,7.65
2023-11-12T04:25:42.446Z,6.65
2023-11-12T04:26:45.700Z,6.90
2023-11-12T04:27:48.480Z,5.78
2023-11-12T04:28:50.720Z,6.25
2023-11-12T04:29:52.769Z,6.32
2023-11-12T04:30:56.099Z,6.28
2023-11-12T04:31:58.074Z,6.57
2023-11-12T04:32:59.988Z,7.40
2023-11-12T04:34:02.383Z,6.95
2023-11-12T04:35:05.132Z,6.57
2023-11-12T04:36:07.301Z,7.00
2023-11-12T04:37:10.047Z,5.40
2023-11-12T04:38:11.973Z,5.82
2023-11-12T04:39:14.117Z,6.28
2023-11-12T04:40:17.525Z,7.03
2023-11-12T04:41:19.523Z,5.90
2023-11-12T04:42:21.455Z,6.38
2023-11-12T04:43:23.381Z,7.47
2023-11-12T04:44:26.773Z,6.57
2023-11-12T04:45:28.738Z,6.43
2023-11-12T04:46:31.926Z,7.70
2023-11-12T04:47:33.958Z,5.85
2023-11-12T04:48:36.099Z,6.53
2023-11-12T04:49:39.414Z,5.80
2023-11-12T04:50:41.300Z,5.97
2023-11-12T04:51:43.212Z,5.50
2023-11-12T04:52:45.673Z,7.00
2023-11-12T04:53:47.786Z,5.82
2023-11-12T04:54:51.484Z,4.90
2023-11-12T04:55:53.465Z,5.85
2023-11-12T04:56:55.416Z,6.53
2023-11-12T04:57:57.366Z,6.72
2023-11-12T04:58:59.280Z,6.63
2023-11-12T05:00:01.229Z,5.88
2023-11-12T05:01:05.817Z,6.65
2023-11-12T05:02:08.145Z,6.13
2023-11-12T05:03:11.067Z,6.90
2023-11-12T05:04:13.247Z,6.30
2023-11-12T05:05:17.743Z,6.63
2023-11-12T05:06:19.945Z,6.35
2023-11-12T05:07:21.828Z,6.28
2023-11-12T05:08:24.198Z,6.82
2023-11-12T05:09:27.002Z,6.28
2023-11-12T05:10:44.386Z,6.43
2023-11-12T05:11:47.782Z,5.65
2023-11-12T05:12:50.173Z,6.18
2023-11-12T05:13:52.962Z,6.85
2023-11-12T05:14:54.846Z,6.57
2023-11-12T05:15:57.821Z,6.47
2023-11-12T05:17:00.060Z,6.90
2023-11-12T05:18:07.121Z,6.15
2023-11-12T05:19:09.503Z,7.70
2023-11-12T05:20:12.838Z,5.80
2023-11-12T05:21:14.802Z,6.13
2023-11-12T05:22:18.346Z,6.50
2023-11-12T05:23:20.307Z,6.10
2023-11-12T05:24:22.210Z,8.52
2023-11-12T05:25:24.095Z,7.97
2023-11-12T05:26:25.989Z,7.07
2023-11-12T05:27:27.933Z,6.28
2023-11-12T05:28:30.959Z,7.57
2023-11-12T05:29:35.521Z,6.10
2023-11-12T05:30:38.223Z,5.95
2023-11-12T05:31:40.444Z,5.93
2023-11-12T05:32:42.475Z,6.53
2023-11-12T05:33:44.467Z,7.68
2023-11-12T05:34:46.459Z,7.18
2023-11-12T05:35:49.262Z,6.70
2023-11-12T05:36:51.279Z,7.00
2023-11-12T05:37:53.156Z,6.70
2023-11-12T05:38:55.387Z,6.47
2023-11-12T05:39:57.309Z,7.30
2023-11-12T05:40:59.272Z,7.22
2023-11-12T05:42:01.159Z,7.60
2023-11-12T05:43:03.149Z,7.70
2023-11-12T05:44:06.038Z,7.35
2023-11-12T05:45:08.946Z,6.90
2023-11-12T05:46:11.004Z,6.90
2023-11-12T05:47:12.921Z,6.50
2023-11-12T05:48:16.184Z,7.75
2023-11-12T05:49:18.201Z,7.38
2023-11-12T05:50:20.224Z,6.30
2023-11-12T05:51:22.147Z,7.00
2023-11-12T05:52:24.079Z,7.18
2023-11-12T05:53:26.066Z,8.55
2023-11-12T05:54:28.049Z,7.85
2023-11-12T05:55:30.139Z,8.35
2023-11-12T05:56:32.280Z,7.28
2023-11-12T05:57:34.720Z,7.07
2023-11-12T05:58:36.842Z,9.75
2023-11-12T05:59:39.122Z,6.70
2023-11-12T06:00:41.169Z,6.28
2023-11-12T06:01:43.352Z,7.38
2023-11-12T06:02:45.327Z,7.90
2023-11-12T06:03:47.478Z,7.00
2023-11-12T06:04:49.482Z,7.35
2023-11-12T06:05:51.420Z,7.65
2023-11-12T06:06:53.293Z,7.38
2023-11-12T06:07:55.402Z,6.90
2023-11-12T06:08:57.811Z,8.70
2023-11-12T06:10:00.545Z,7.57
2023-11-12T06:11:02.609Z,10.10
2023-11-12T06:12:06.430Z,6.43
2023-11-12T06:13:10.025Z,7.80
2023-11-12T06:14:12.619Z,8.60
2023-11-12T06:15:14.606Z,7.60
2023-11-12T06:16:16.633Z,7.18
2023-11-12T06:17:18.793Z,6.85
2023-11-12T06:18:20.672Z,7.20
2023-11-12T06:19:22.647Z,7.07
2023-11-12T06:20:27.383Z,8.77
2023-11-12T06:21:29.986Z,7.85
2023-11-12T06:22:31.964Z,7.25
2023-11-12T06:23:33.859Z,6.70
2023-11-12T06:24:35.890Z,7.00
2023-11-12T06:25:37.719Z,7.50
2023-11-12T06:26:39.641Z,7.13
2023-11-12T06:27:42.004Z,6.93
2023-11-12T06:28:44.176Z,7.78
2023-11-12T06:29:47.680Z,7.00
2023-11-12T06:30:52.158Z,6.78
2023-11-12T06:31:54.125Z,7.20
2023-11-12T06:32:56.216Z,7.55
2023-11-12T06:33:58.324Z,6.93
2023-11-12T06:35:00.275Z,6.20
2023-11-12T06:36:02.598Z,5.47
2023-11-12T06:37:04.985Z,6.47
2023-11-12T06:38:07.091Z,8.20
2023-11-12T06:39:08.986Z,7.28
2023-11-12T06:40:12.371Z,6.60
2023-11-12T06:41:14.297Z,7.72
2023-11-12T06:42:16.853Z,7.88
2023-11-12T06:43:19.083Z,7.47
2023-11-12T06:44:21.056Z,7.65
2023-11-12T06:45:23.250Z,7.40
2023-11-12T06:46:26.664Z,6.82
2023-11-12T06:47:28.580Z,7.35
2023-11-12T06:48:30.482Z,7.28
2023-11-12T06:49:33.308Z,7.00
2023-11-12T06:50:35.191Z,6.82
2023-11-12T06:51:37.181Z,7.47
2023-11-12T06:52:39.077Z,5.90
2023-11-12T06:53:41.059Z,5.88
2023-11-12T06:54:43.514Z,7.15
2023-11-12T06:55:45.376Z,6.20
2023-11-12T06:56:47.288Z,15.77
2023-11-12T06:57:49.209Z,9.50
2023-11-12T06:58:51.104Z,6.53
2023-11-12T06:59:52.921Z,6.50
2023-11-12T07:00:55.656Z,6.60
2023-11-12T07:01:57.621Z,6.22
2023-11-12T07:02:59.759Z,6.18
2023-11-12T07:04:01.789Z,6.70
2023-11-12T07:05:07.754Z,7.93
2023-11-12T07:06:09.698Z,7.30
2023-11-12T07:07:16.807Z,7.50
2023-11-12T07:08:20.433Z,8.20
2023-11-12T07:09:22.525Z,6.43
2023-11-12T07:10:25.064Z,6.38
2023-11-12T07:11:27.107Z,6.00
2023-11-12T07:12:28.983Z,6.78
2023-11-12T07:13:30.947Z,9.15
2023-11-12T07:14:33.024Z,6.78
2023-11-12T07:15:35.039Z,6.32
2023-11-12T07:16:36.930Z,6.30
2023-11-12T07:17:38.806Z,6.75
2023-11-12T07:18:49.559Z,6.45
2023-11-12T07:19:56.976Z,8.07
2023-11-12T07:20:58.843Z,7.47
2023-11-12T07:22:01.496Z,7.85
2023-11-12T07:23:03.463Z,6.82
2023-11-12T07:24:06.725Z,6.10
2023-11-12T07:25:10.518Z,7.25
2023-11-12T07:26:12.406Z,6.78
2023-11-12T07:27:14.310Z,6.10
2023-11-12T07:28:16.249Z,8.65
2023-11-12T07:29:18.256Z,8.65
2023-11-12T07:30:21.137Z,7.47
2023-11-12T07:31:25.248Z,8.80
2023-11-12T07:32:27.584Z,7.78
2023-11-12T07:33:29.505Z,6.18
2023-11-12T07:34:31.435Z,6.40
2023-11-12T07:35:35.230Z,5.78
2023-11-12T07:36:38.474Z,7.13
2023-11-12T07:37:44.710Z,6.80
2023-11-12T07:38:46.639Z,6.40
2023-11-12T07:39:48.615Z,5.47
2023-11-12T07:40:50.585Z,6.50
2023-11-12T07:41:53.046Z,5.70
2023-11-12T07:42:59.084Z,5.28
2023-11-12T07:44:01.720Z,5.72
2023-11-12T07:45:13.715Z,8.50
2023-11-12T07:46:17.630Z,5.45
2023-11-12T07:47:19.557Z,6.10
2023-11-12T07:48:21.448Z,6.72
2023-11-12T07:49:24.863Z,6.18
2023-11-12T07:50:27.135Z,5.03
2023-11-12T07:51:29.000Z,5.45
2023-11-12T07:52:32.319Z,5.60
2023-11-12T07:53:34.248Z,5.80
2023-11-12T07:54:36.485Z,6.60
2023-11-12T07:55:39.068Z,6.15
2023-11-12T07:56:42.608Z,7.50
2023-11-12T07:57:45.177Z,5.28
2023-11-12T07:58:47.322Z,5.63
2023-11-12T07:59:49.259Z,5.55
2023-11-12T08:00:51.264Z,4.75
2023-11-12T08:01:53.145Z,6.00
2023-11-12T08:02:55.195Z,6.25
2023-11-12T08:03:58.571Z,6.03
2023-11-12T08:05:04.274Z,6.00
2023-11-12T08:06:08.726Z,5.75
2023-11-12T08:07:11.149Z,6.00
2023-11-12T08:08:13.133Z,5.90
2023-11-12T08:09:15.739Z,5.90
2023-11-12T08:10:19.756Z,6.10
2023-11-12T08:11:21.897Z,5.78
2023-11-12T08:12:23.906Z,5.68
2023-11-12T08:13:26.090Z,5.60
2023-11-12T08:14:27.982Z,5.93
2023-11-12T08:15:30.025Z,5.45
2023-11-12T08:16:32.086Z,4.75
2023-11-12T08:17:34.060Z,5.72
2023-11-12T08:18:35.912Z,6.72
2023-11-12T08:19:37.801Z,6.80
2023-11-12T08:20:39.755Z,5.63
2023-11-12T08:21:41.899Z,6.47
2023-11-12T08:22:44.654Z,6.07
2023-11-12T08:23:47.973Z,5.63
2023-11-12T08:24:49.884Z,6.15
2023-11-12T08:25:51.777Z,5.88
2023-11-12T08:26:53.703Z,5.80
2023-11-12T08:27:58.354Z,6.10
2023-11-12T08:29:00.247Z,7.18
2023-11-12T08:30:02.236Z,6.07
2023-11-12T08:31:04.334Z,6.22
2023-11-12T08:32:07.463Z,8.50
2023-11-12T08:33:09.378Z,6.13
2023-11-12T08:34:11.248Z,9.95
2023-11-12T08:35:13.825Z,7.22
2023-11-12T08:36:16.134Z,6.85
2023-11-12T08:37:18.779Z,8.13
2023-11-12T08:38:20.849Z,6.38
2023-11-12T08:39:24.116Z,5.93
2023-11-12T08:40:25.999Z,6.93
2023-11-12T08:41:30.792Z,7.05
2023-11-12T08:42:32.715Z,6.57
2023-11-12T08:43:34.842Z,6.50
2023-11-12T08:44:37.491Z,7.22
2023-11-12T08:45:40.984Z,6.88
2023-11-12T08:46:43.904Z,8.30
2023-11-12T08:47:46.706Z,6.93
2023-11-12T08:48:48.709Z,6.95
2023-11-12T08:49:50.665Z,6.93
2023-11-12T08:50:52.591Z,6.53
2023-11-12T08:51:54.438Z,7.35
2023-11-12T08:52:58.010Z,6.32
2023-11-12T08:54:00.040Z,7.03
2023-11-12T08:55:01.999Z,28.52
2023-11-12T08:56:04.685Z,11.25
2023-11-12T08:57:08.041Z,7.97
2023-11-12T08:58:10.068Z,7.55
2023-11-12T08:59:12.793Z,8.40
2023-11-12T09:00:15.517Z,8.20
2023-11-12T09:01:17.449Z,6.55
2023-11-12T09:02:19.542Z,6.57
2023-11-12T09:03:21.919Z,6.13
2023-11-12T09:04:24.062Z,6.30
2023-11-12T09:05:25.989Z,6.25
2023-11-12T09:06:27.998Z,5.80
2023-11-12T09:07:29.935Z,5.50
2023-11-12T09:08:31.903Z,4.57
2023-11-12T09:09:36.796Z,5.88
2023-11-12T09:10:39.105Z,5.00
2023-11-12T09:11:40.977Z,4.45
2023-11-12T09:12:43.026Z,5.80
2023-11-12T09:13:46.374Z,6.60
2023-11-12T09:14:48.447Z,6.03
2023-11-12T09:15:50.814Z,4.70
2023-11-12T09:16:52.944Z,5.43
2023-11-12T09:17:55.406Z,5.53
2023-11-12T09:18:57.728Z,4.50
2023-11-12T09:19:59.652Z,4.72
2023-11-12T09:21:02.081Z,4.75
2023-11-12T09:22:04.218Z,5.30
2023-11-12T09:23:06.455Z,4.63
2023-11-12T09:24:09.129Z,7.25
2023-11-12T09:25:12.652Z,5.30
2023-11-12T09:26:23.661Z,8.30
2023-11-12T09:27:25.780Z,5.97
2023-11-12T09:28:27.703Z,5.30
2023-11-12T09:29:30.026Z,5.57
2023-11-12T09:30:44.620Z,5.30
2023-11-12T09:31:55.974Z,4.35
2023-11-12T09:32:58.227Z,5.45
2023-11-12T09:34:00.416Z,4.40
2023-11-12T09:35:05.449Z,5.20
2023-11-12T09:36:07.940Z,3.60
2023-11-12T09:37:10.745Z,3.83
2023-11-12T09:38:14.356Z,3.53
2023-11-12T09:39:18.147Z,4.00
2023-11-12T09:40:20.866Z,2.30
2023-11-12T09:41:24.291Z,2.40
2023-11-12T09:42:32.889Z,1.98
2023-11-12T09:43:34.823Z,2.58
2023-11-12T09:44:40.146Z,2.80
2023-11-12T09:45:46.992Z,3.05
2023-11-12T09:47:27.010Z,3.50
2023-11-12T09:48:40.467Z,4.38
2023-11-12T09:49:43.790Z,3.10
2023-11-12T09:50:46.636Z,2.63
2023-11-12T09:51:48.822Z,4.70
2023-11-12T09:52:53.865Z,3.35
2023-11-12T09:53:59.293Z,3.95
2023-11-12T09:55:02.773Z,3.58
2023-11-12T09:56:11.405Z,2.22
2023-11-12T09:57:13.353Z,12.15
2023-11-12T09:58:15.471Z,6.50
2023-11-12T09:59:17.474Z,4.80
2023-11-12T10:00:19.961Z,4.20
2023-11-12T10:01:21.999Z,3.30
2023-11-12T10:02:27.497Z,3.05
2023-11-12T10:03:29.510Z,2.80
2023-11-12T10:04:32.040Z,4.38
2023-11-12T10:05:35.732Z,3.20
2023-11-12T10:06:40.234Z,3.15
2023-11-12T10:07:43.126Z,3.00
2023-11-12T10:08:46.240Z,2.70
2023-11-12T10:09:48.135Z,3.70
2023-11-12T10:10:50.106Z,4.25
2023-11-12T10:11:52.121Z,4.03
2023-11-12T10:12:57.328Z,3.05
2023-11-12T10:13:59.483Z,2.45
2023-11-12T10:15:03.217Z,3.95
2023-11-12T10:16:41.701Z,4.50
2023-11-12T10:17:47.516Z,6.70
2023-11-12T10:18:49.444Z,6.25
2023-11-12T10:19:58.665Z,4.30
2023-11-12T10:21:08.835Z,4.65
2023-11-12T10:22:11.836Z,4.53
2023-11-12T10:23:32.637Z,3.90
2023-11-12T10:24:46.498Z,5.50
2023-11-12T10:25:51.660Z,4.90
2023-11-12T10:27:06.753Z,4.22
2023-11-12T10:28:12.720Z,4.00
2023-11-12T10:29:22.773Z,4.22
2023-11-12T10:30:26.091Z,7.07
2023-11-12T10:31:39.740Z,5.00
2023-11-12T10:32:41.859Z,5.50
2023-11-12T10:34:00.663Z,4.50
2023-11-12T10:35:03.694Z,8.55
2023-11-12T10:36:11.566Z,7.47
2023-11-12T10:37:17.187Z,5.53
2023-11-12T10:38:19.900Z,5.35
2023-11-12T10:39:22.050Z,4.63
2023-11-12T10:40:25.372Z,4.97
2023-11-12T10:41:36.277Z,5.20
2023-11-12T10:42:38.195Z,4.75
2023-11-12T10:43:41.783Z,5.20
2023-11-12T10:44:45.859Z,4.45
2023-11-12T10:45:51.005Z,7.43
2023-11-12T10:46:55.098Z,5.97
2023-11-12T10:47:57.894Z,5.55
2023-11-12T10:49:02.037Z,10.88
2023-11-12T10:50:06.029Z,7.03
2023-11-12T10:51:09.788Z,6.35
2023-11-12T10:52:14.869Z,5.90
2023-11-12T10:53:17.771Z,7.85
2023-11-12T10:54:21.866Z,7.18
2023-11-12T10:55:25.517Z,6.40
2023-11-12T10:56:29.722Z,5.90
2023-11-12T10:57:35.466Z,9.85
2023-11-12T10:58:37.490Z,8.10
2023-11-12T10:59:41.335Z,6.03
2023-11-12T11:00:45.818Z,12.13
2023-11-12T11:01:48.557Z,6.88
2023-11-12T11:02:50.889Z,6.32
2023-11-12T11:03:53.449Z,7.70
2023-11-12T11:04:57.955Z,7.60
2023-11-12T11:06:02.899Z,7.10
2023-11-12T11:07:05.738Z,8.63
2023-11-12T11:08:07.883Z,7.20
2023-11-12T11:09:11.380Z,6.88
2023-11-12T11:10:13.396Z,6.40
2023-11-12T11:11:15.674Z,7.25
2023-11-12T11:12:19.268Z,7.20
2023-11-12T11:13:22.723Z,10.35
2023-11-12T11:14:31.101Z,8.60
2023-11-12T11:15:53.414Z,8.02
2023-11-12T11:16:56.907Z,7.90
2023-11-12T11:17:59.024Z,11.15
2023-11-12T11:19:01.019Z,9.18
2023-11-12T11:20:06.129Z,9.15
2023-11-12T11:21:17.498Z,11.48
2023-11-12T11:22:28.284Z,11.75
2023-11-12T11:23:53.619Z,11.23
2023-11-12T11:25:30.792Z,10.82
2023-11-12T11:26:45.449Z,9.20
2023-11-12T11:27:48.828Z,10.48
2023-11-12T11:29:11.056Z,10.65
2023-11-12T11:30:18.946Z,11.52
2023-11-12T11:31:20.850Z,9.85
2023-11-12T11:32:22.944Z,11.80
2023-11-12T11:33:25.124Z,13.52
2023-11-12T11:34:43.748Z,9.35
2023-11-12T11:35:46.084Z,11.15
2023-11-12T11:37:02.286Z,10.43
2023-11-12T11:38:13.575Z,10.88
2023-11-12T11:39:27.667Z,10.82
2023-11-12T11:40:34.434Z,10.70
2023-11-12T11:41:49.045Z,10.73
2023-11-12T11:43:23.276Z,9.38
2023-11-12T11:44:45.935Z,10.60
2023-11-12T11:46:08.377Z,14.32
2023-11-12T11:47:27.301Z,13.27
2023-11-12T11:48:29.277Z,17.45
2023-11-12T11:49:31.204Z,13.25
2023-11-12T11:50:46.156Z,21.58
2023-11-12T11:51:50.196Z,13.50
2023-11-12T11:52:54.071Z,16.08
2023-11-12T11:53:58.182Z,16.83
2023-11-12T11:55:27.042Z,24.38
2023-11-12T11:56:31.516Z,15.25
2023-11-12T11:57:33.776Z,19.70
2023-11-12T11:58:52.707Z,13.70
2023-11-12T11:59:57.466Z,15.65
2023-11-12T12:01:00.921Z,16.13
2023-11-12T12:02:06.002Z,14.90
2023-11-12T12:03:20.331Z,12.77
2023-11-12T12:04:24.351Z,14.25
2023-11-12T12:05:32.097Z,13.70
2023-11-12T12:06:34.924Z,14.52
2023-11-12T12:07:38.960Z,13.15
2023-11-12T12:08:57.063Z,14.98
2023-11-12T12:10:01.898Z,13.90
2023-11-12T12:11:24.002Z,16.92
2023-11-12T12:12:26.278Z,27.13
2023-11-12T12:13:28.899Z,17.27
2023-11-12T12:14:36.969Z,14.75
2023-11-12T12:15:46.687Z,16.27
2023-11-12T12:16:49.069Z,12.98
2023-11-12T12:17:51.033Z,14.38
2023-11-12T12:18:52.951Z,15.63
2023-11-12T12:19:56.096Z,18.45
2023-11-12T12:20:59.677Z,15.25
2023-11-12T12:22:01.737Z,13.63
2023-11-12T12:23:03.947Z,13.80
2023-11-12T12:24:08.034Z,14.88
2023-11-12T12:25:10.356Z,14.95
2023-11-12T12:26:12.474Z,11.50
2023-11-12T12:27:14.788Z,14.05
2023-11-12T12:28:21.397Z,13.25
2023-11-12T12:29:25.765Z,18.08
2023-11-12T12:30:27.850Z,12.70
2023-11-12T12:31:30.035Z,12.18
2023-11-12T12:32:40.757Z,9.40
2023-11-12T12:33:42.719Z,10.73
2023-11-12T12:34:46.069Z,13.95
2023-11-12T12:35:50.653Z,11.32
2023-11-12T12:37:11.006Z,12.57
2023-11-12T12:38:13.541Z,10.02
2023-11-12T12:39:16.914Z,12.40
2023-11-12T12:40:29.938Z,10.68
2023-11-12T12:41:32.203Z,13.38
2023-11-12T12:42:35.358Z,14.68
2023-11-12T12:43:51.386Z,12.35
2023-11-12T12:44:53.919Z,12.13
2023-11-12T12:45:57.810Z,15.18
2023-11-12T12:46:59.906Z,9.32
2023-11-12T12:48:13.018Z,9.00
2023-11-12T12:49:34.050Z,16.13
2023-11-12T12:50:36.168Z,9.57
2023-11-12T12:51:52.915Z,9.73
2023-11-12T12:53:18.953Z,9.80
2023-11-12T12:54:21.097Z,9.40
2023-11-12T12:55:23.117Z,8.60
2023-11-12T12:56:25.042Z,9.38
2023-11-12T12:57:27.378Z,8.45
2023-11-12T12:58:39.833Z,12.02
2023-11-12T12:59:41.832Z,11.68
2023-11-12T13:00:44.877Z,13.13
2023-11-12T13:01:46.961Z,9.43
2023-11-12T13:02:49.784Z,9.35
2023-11-12T13:03:51.767Z,8.15
2023-11-12T13:04:54.691Z,7.75
2023-11-12T13:05:57.943Z,8.50
2023-11-12T13:07:01.622Z,8.80
2023-11-12T13:08:09.063Z,8.65
2023-11-12T13:09:17.481Z,8.10
2023-11-12T13:10:23.035Z,13.18
2023-11-12T13:11:28.227Z,8.00
2023-11-12T13:12:34.618Z,11.25
2023-11-12T13:13:37.657Z,7.55
2023-11-12T13:14:41.894Z,8.20
2023-11-12T13:15:47.716Z,9.25
2023-11-12T13:16:52.289Z,13.02
2023-11-12T13:17:56.532Z,7.18
2023-11-12T13:18:58.557Z,7.43
2023-11-12T13:20:00.532Z,10.52
2023-11-12T13:21:02.490Z,8.90
2023-11-12T13:22:04.921Z,9.20
2023-11-12T13:23:08.242Z,7.68
2023-11-12T13:24:11.463Z,9.52
2023-11-12T13:25:14.075Z,8.70
2023-11-12T13:26:16.943Z,9.23
2023-11-12T13:27:19.149Z,11.43
2023-11-12T13:28:22.275Z,7.72
2023-11-12T13:29:24.394Z,9.63
2023-11-12T13:30:26.509Z,8.20
2023-11-12T13:31:30.064Z,10.00
2023-11-12T13:32:34.901Z,7.85
2023-11-12T13:33:38.906Z,7.65
2023-11-12T13:34:45.026Z,9.18
2023-11-12T13:35:49.017Z,7.70
2023-11-12T13:36:51.483Z,7.80
2023-11-12T13:37:53.393Z,8.00
2023-11-12T13:38:55.407Z,7.72
2023-11-12T13:39:57.972Z,10.18
2023-11-12T13:41:01.565Z,7.45
2023-11-12T13:42:04.647Z,7.22
2023-11-12T13:43:07.757Z,13.18
2023-11-12T13:44:10.702Z,7.50
2023-11-12T13:45:15.196Z,7.53
2023-11-12T13:46:17.496Z,10.48
2023-11-12T13:47:21.267Z,7.70
2023-11-12T13:48:23.883Z,8.20
2023-11-12T13:49:25.966Z,7.97
2023-11-12T13:50:29.270Z,7.00
2023-11-12T13:51:36.275Z,7.53
2023-11-12T13:52:43.752Z,10.32
2023-11-12T13:53:49.945Z,13.35
2023-11-12T13:54:51.993Z,8.80
2023-11-12T13:55:58.454Z,10.50
2023-11-12T13:57:03.866Z,8.90
2023-11-12T13:58:07.341Z,6.50
2023-11-12T13:59:10.268Z,8.30
2023-11-12T14:00:16.799Z,7.40
2023-11-12T14:01:21.051Z,7.63
2023-11-12T14:02:27.489Z,8.27
2023-11-12T14:03:30.162Z,6.80
2023-11-12T14:04:33.184Z,9.70